Погода Сорогана неделю

Тверская область, Россия

23 - 29 мая
  • 23мая
    Сегодня
    +9°
    +22°
    Ясно и безоблачно
    ВремяПогодаТемператураВлажностьДавлениеВетер, м/сВероятность осадков
    00:00Ясно и безоблачно+11°C56 %749 мм1.2 м/с2 %
    03:00Ясно и безоблачно+9°C61 %750 мм1.1 м/с2 %
    06:00Ясно и безоблачно+10°C64 %751 мм1.3 м/с2 %
    09:00Ясно и безоблачно+16°C50 %752 мм1.5 м/с2 %
    12:00Ясно и безоблачно+20°C35 %752 мм2.6 м/с2 %
    15:00Ясно и безоблачно+21°C33 %752 мм2.6 м/с2 %
    18:00Ясно и безоблачно+22°C33 %752 мм2.1 м/с2 %
    21:00Ясно и безоблачно+17°C58 %752 мм1.2 м/с2 %
  • 24мая
    Пятница
    +9°
    +22°
    Ясно и безоблачно
    ВремяПогодаТемператураВлажностьДавлениеВетер, м/сВероятность осадков
    00:00Ясно и безоблачно+11°C69 %752 мм1.2 м/с2 %
    03:00Ясно и безоблачно+10°C75 %753 мм1.0 м/с2 %
    06:00Ясно и безоблачно+10°C73 %754 мм1.2 м/с2 %
    09:00Ясно и безоблачно+17°C51 %755 мм1.4 м/с2 %
    12:00Ясно и безоблачно+20°C36 %755 мм2.6 м/с2 %
    15:00Ясно и безоблачно+21°C33 %754 мм2.8 м/с2 %
    18:00Ясно и безоблачно+22°C29 %753 мм2.1 м/с2 %
    21:00Ясно и безоблачно+17°C49 %753 мм1.4 м/с2 %
  • 25мая
    Суббота
    +11°
    +24°
    Ясно и безоблачно
    ВремяПогодаТемператураВлажностьДавлениеВетер, м/сВероятность осадков
    00:00Ясно и безоблачно+11°C58 %752 мм1.4 м/с2 %
    03:00Ясно и безоблачно+9°C63 %752 мм1.0 м/с2 %
    06:00Ясно и безоблачно+10°C69 %752 мм1.4 м/с2 %
    09:00Ясно и безоблачно+17°C55 %752 мм1.6 м/с2 %
    12:00Ясно и безоблачно+21°C40 %751 мм2.4 м/с2 %
    15:00Ясно и безоблачно+23°C36 %750 мм2.7 м/с2 %
    18:00Ясно и безоблачно+24°C37 %749 мм1.9 м/с2 %
    21:00Ясно и безоблачно+19°C58 %748 мм1.0 м/с3 %
  • 26мая
    Воскресенье
    +10°
    +25°
    Небольшая облачность и лёгкий дождик
    ВремяПогодаТемператураВлажностьДавлениеВетер, м/сВероятность осадков
    00:00Ясно и безоблачно+14°C71 %748 мм0.9 м/с2 %
    03:00Ясно и безоблачно+12°C79 %748 мм0.8 м/с3 %
    06:00Ясно и безоблачно+14°C76 %748 мм1.2 м/с3 %
    09:00Ясно и безоблачно+20°C57 %748 мм1.3 м/с8 %
    12:00Облачно с прояснениями+24°C39 %748 мм2.2 м/с41 %
    15:00Небольшая облачность и лёгкий дождик+25°C41 %748 мм2.4 м/с56 %
    18:00Небольшая облачность и лёгкий дождик+24°C65 %749 мм1.1 м/с57 %
    21:00Небольшая облачность+19°C80 %749 мм1.2 м/с27 %
  • 27мая
    Понедельник
    +11°
    +24°
    Ясно и безоблачно
    ВремяПогодаТемператураВлажностьДавлениеВетер, м/сВероятность осадков
    00:00Небольшая облачность+15°C91 %749 мм1.3 м/с3 %
    03:00Практически безоблачно+11°C92 %750 мм1.1 м/с2 %
    06:00Ясно и безоблачно+12°C79 %751 мм1.4 м/с2 %
    09:00Небольшая облачность+17°C66 %751 мм1.5 м/с4 %
    12:00Небольшая облачность+20°C51 %751 мм1.6 м/с18 %
    15:00Ясно и безоблачно+23°C39 %751 мм2.3 м/с18 %
    18:00Ясно и безоблачно+23°C38 %750 мм1.2 м/с18 %
    21:00Ясно и безоблачно+20°C58 %749 мм1.1 м/с7 %
Мы используем cookies
Соглашаюсь